Time;durP1;ratioP1;P1;durP2;ratioP2;P2;SDS_P1;SDS_P2;PMS_P1;PMS_P2;Temp;Humidity;BMP_temperature;BMP_pressure;BME280_temperature;BME280_humidity;BME280_pressure;Samples;Min_cycle;Max_cycle;Signal;HPM_P1;HPM_P2
2021/10/18 00:00:28;;;;;;;0.52;0.32;;;;;;;;;;5032680;28;20042;-64
2021/10/18 00:02:53;;;;;;;0.50;0.13;;;;;;;;;;5033251;28;20021;-64
2021/10/18 00:05:19;;;;;;;1.63;0.20;;;;;;;;;;5031728;28;20108;-63
2021/10/18 00:07:45;;;;;;;0.40;0.10;;;;;;;;;;5032814;28;20029;-64
2021/10/18 00:10:13;;;;;;;1.60;0.30;;;;;;;;;;5031728;28;20048;-63
2021/10/18 00:12:38;;;;;;;0.85;0.20;;;;;;;;;;5032879;28;20092;-63
2021/10/18 00:15:05;;;;;;;0.70;0.30;;;;;;;;;;5033008;28;20101;-63
2021/10/18 00:17:31;;;;;;;1.48;0.10;;;;;;;;;;5032594;28;20049;-62
2021/10/18 00:19:56;;;;;;;0.30;0.30;;;;;;;;;;5033024;28;20140;-63
2021/10/18 00:22:22;;;;;;;0.63;0.03;;;;;;;;;;5032999;28;20025;-63
2021/10/18 00:24:47;;;;;;;0.73;0.20;;;;;;;;;;5032777;28;20097;-63
2021/10/18 00:27:12;;;;;;;0.20;0.20;;;;;;;;;;5032855;28;20452;-63
2021/10/18 00:29:37;;;;;;;0.52;0.10;;;;;;;;;;5034646;28;20021;-64
2021/10/18 00:32:03;;;;;;;1.42;0.30;;;;;;;;;;5036905;28;20033;-63
2021/10/18 00:34:28;;;;;;;1.30;0.13;;;;;;;;;;5036717;28;20021;-63
2021/10/18 00:36:53;;;;;;;0.05;0.05;;;;;;;;;;5036730;28;20025;-62
2021/10/18 00:39:18;;;;;;;0.90;0.50;;;;;;;;;;5036545;28;20026;-62
2021/10/18 00:41:44;;;;;;;0.43;0.30;;;;;;;;;;5036703;28;20550;-63
2021/10/18 00:44:09;;;;;;;0.73;0.20;;;;;;;;;;5036690;28;20033;-63
2021/10/18 00:46:34;;;;;;;0.50;0.07;;;;;;;;;;5036413;28;20017;-63
2021/10/18 00:49:00;;;;;;;0.25;0.20;;;;;;;;;;5036718;28;20775;-63
2021/10/18 00:51:26;;;;;;;0.88;0.30;;;;;;;;;;5036161;28;20108;-64
2021/10/18 00:53:52;;;;;;;0.03;0.00;;;;;;;;;;5036243;28;20059;-63
2021/10/18 00:56:18;;;;;;;1.45;0.35;;;;;;;;;;5036385;28;20025;-63
2021/10/18 00:58:44;;;;;;;0.88;0.22;;;;;;;;;;5036165;28;20025;-63
2021/10/18 01:01:09;;;;;;;2.33;0.43;;;;;;;;;;5036222;28;20145;-63
2021/10/18 01:03:38;;;;;;;0.32;0.08;;;;;;;;;;5036026;28;20080;-63
2021/10/18 01:06:03;;;;;;;0.17;0.17;;;;;;;;;;5036155;28;20021;-63
2021/10/18 01:08:29;;;;;;;0.70;0.10;;;;;;;;;;5036061;28;20048;-63
2021/10/18 01:10:54;;;;;;;0.60;0.10;;;;;;;;;;5036082;28;20064;-64
2021/10/18 01:13:19;;;;;;;0.30;0.13;;;;;;;;;;5036337;28;20064;-64
2021/10/18 01:15:45;;;;;;;0.50;0.30;;;;;;;;;;5035918;28;20029;-63
2021/10/18 01:18:10;;;;;;;0.63;0.22;;;;;;;;;;5036136;28;20009;-63
2021/10/18 01:20:39;;;;;;;0.00;0.00;;;;;;;;;;5035850;28;20520;-63
2021/10/18 01:23:05;;;;;;;0.43;0.30;;;;;;;;;;5036092;28;20022;-63
2021/10/18 01:25:30;;;;;;;0.32;0.30;;;;;;;;;;5035521;28;20021;-63
2021/10/18 01:27:56;;;;;;;1.65;0.50;;;;;;;;;;5034611;28;20476;-63
2021/10/18 01:30:21;;;;;;;0.10;0.10;;;;;;;;;;5035673;28;20049;-63
2021/10/18 01:32:48;;;;;;;0.10;0.10;;;;;;;;;;5035609;28;20433;-63
2021/10/18 01:35:13;;;;;;;3.20;0.38;;;;;;;;;;5035831;28;20100;-63
2021/10/18 01:37:39;;;;;;;0.32;0.20;;;;;;;;;;5035542;28;20604;-63
2021/10/18 01:40:07;;;;;;;0.60;0.15;;;;;;;;;;5035539;28;20092;-62
2021/10/18 01:42:33;;;;;;;0.63;0.43;;;;;;;;;;5035452;28;20029;-63
2021/10/18 01:44:58;;;;;;;0.63;0.10;;;;;;;;;;5035644;28;20034;-63
2021/10/18 01:47:26;;;;;;;1.50;0.32;;;;;;;;;;5035165;28;20021;-64
2021/10/18 01:49:52;;;;;;;1.58;0.30;;;;;;;;;;5035609;28;20026;-63
2021/10/18 01:52:17;;;;;;;0.45;0.20;;;;;;;;;;5035346;28;20072;-64
2021/10/18 01:54:42;;;;;;;1.23;0.20;;;;;;;;;;5035347;28;20021;-63
2021/10/18 01:57:07;;;;;;;0.20;0.17;;;;;;;;;;5035423;28;20057;-63
2021/10/18 01:59:32;;;;;;;0.50;0.20;;;;;;;;;;5035243;28;20040;-62
2021/10/18 02:01:58;;;;;;;0.35;0.20;;;;;;;;;;5034997;28;20064;-63
2021/10/18 02:04:23;;;;;;;0.90;0.35;;;;;;;;;;5034947;28;20044;-63
2021/10/18 02:06:49;;;;;;;1.10;0.20;;;;;;;;;;5035007;28;20065;-63
2021/10/18 02:09:15;;;;;;;0.32;0.20;;;;;;;;;;5035293;28;20017;-64
2021/10/18 02:11:40;;;;;;;0.50;0.20;;;;;;;;;;5034812;28;20618;-63
2021/10/18 02:14:06;;;;;;;1.42;0.38;;;;;;;;;;5035054;28;20108;-63
2021/10/18 02:16:31;;;;;;;0.40;0.30;;;;;;;;;;5034742;28;20103;-63
2021/10/18 02:18:56;;;;;;;0.10;0.10;;;;;;;;;;5035089;28;20021;-63
2021/10/18 02:21:21;;;;;;;1.20;0.63;;;;;;;;;;5034756;28;20369;-63
2021/10/18 02:23:47;;;;;;;0.40;0.30;;;;;;;;;;5034674;28;20255;-63
2021/10/18 02:26:12;;;;;;;0.40;0.10;;;;;;;;;;5034654;28;20033;-64
2021/10/18 02:28:37;;;;;;;0.32;0.25;;;;;;;;;;5034827;28;20104;-63
2021/10/18 02:31:02;;;;;;;1.05;0.20;;;;;;;;;;5034562;28;20025;-63
2021/10/18 02:33:28;;;;;;;1.15;0.43;;;;;;;;;;5034517;28;20025;-63
2021/10/18 02:35:54;;;;;;;0.35;0.28;;;;;;;;;;5034478;28;20113;-63
2021/10/18 02:38:19;;;;;;;0.60;0.30;;;;;;;;;;5034646;28;20512;-63
2021/10/18 02:40:44;;;;;;;0.10;0.10;;;;;;;;;;5034466;28;20017;-63
2021/10/18 02:43:09;;;;;;;0.90;0.38;;;;;;;;;;5034565;28;20018;-64
2021/10/18 02:45:36;;;;;;;0.63;0.10;;;;;;;;;;5034320;28;20488;-64
2021/10/18 02:48:01;;;;;;;0.90;0.40;;;;;;;;;;5034282;28;20415;-64
2021/10/18 02:50:28;;;;;;;0.32;0.28;;;;;;;;;;5034342;28;20017;-63
2021/10/18 02:52:53;;;;;;;0.50;0.20;;;;;;;;;;5033753;28;20021;-63
2021/10/18 02:55:19;;;;;;;0.90;0.30;;;;;;;;;;5034098;28;20021;-63
2021/10/18 02:57:44;;;;;;;0.70;0.30;;;;;;;;;;5034030;28;20376;-63
2021/10/18 03:00:09;;;;;;;0.43;0.13;;;;;;;;;;5034004;28;20353;-63
2021/10/18 03:02:34;;;;;;;0.22;0.10;;;;;;;;;;5034091;28;20049;-64
2021/10/18 03:05:00;;;;;;;1.55;0.50;;;;;;;;;;5034034;28;20016;-64
2021/10/18 03:07:25;;;;;;;1.73;0.20;;;;;;;;;;5033798;28;20503;-63
2021/10/18 03:09:50;;;;;;;0.63;0.20;;;;;;;;;;5033979;28;20057;-64
2021/10/18 03:12:15;;;;;;;0.93;0.55;;;;;;;;;;5033558;28;20380;-64
2021/10/18 03:14:40;;;;;;;0.65;0.10;;;;;;;;;;5033866;28;20018;-63
2021/10/18 03:17:06;;;;;;;0.50;0.20;;;;;;;;;;5032464;28;20036;-63
2021/10/18 03:19:31;;;;;;;0.22;0.20;;;;;;;;;;5033741;28;20736;-62
2021/10/18 03:21:57;;;;;;;0.50;0.30;;;;;;;;;;5033812;28;20021;-63
2021/10/18 03:24:22;;;;;;;0.80;0.20;;;;;;;;;;5033578;28;20049;-63
2021/10/18 03:26:47;;;;;;;0.15;0.10;;;;;;;;;;5033829;28;20025;-63
2021/10/18 03:29:12;;;;;;;0.40;0.00;;;;;;;;;;5033431;28;20029;-63
2021/10/18 03:31:38;;;;;;;0.85;0.20;;;;;;;;;;5033593;28;20022;-64
2021/10/18 03:34:03;;;;;;;0.87;0.23;;;;;;;;;;5033640;28;20487;-63
2021/10/18 03:36:28;;;;;;;0.28;0.20;;;;;;;;;;5033421;28;20247;-64
2021/10/18 03:38:53;;;;;;;0.55;0.20;;;;;;;;;;5033634;28;20013;-64
2021/10/18 03:41:21;;;;;;;0.63;0.35;;;;;;;;;;5033579;28;20030;-63
2021/10/18 03:43:46;;;;;;;0.20;0.10;;;;;;;;;;5033486;28;20018;-63
2021/10/18 03:46:11;;;;;;;1.83;0.38;;;;;;;;;;5033508;28;20372;-63
2021/10/18 03:48:36;;;;;;;0.50;0.30;;;;;;;;;;5033471;28;20021;-63
2021/10/18 03:51:01;;;;;;;0.17;0.17;;;;;;;;;;5033254;28;20021;-63
2021/10/18 03:53:28;;;;;;;0.35;0.15;;;;;;;;;;5033261;28;20017;-64
2021/10/18 03:55:55;;;;;;;0.98;0.30;;;;;;;;;;5033366;28;20041;-64
2021/10/18 03:58:20;;;;;;;0.98;0.40;;;;;;;;;;5032101;28;20514;-64
2021/10/18 04:00:45;;;;;;;0.43;0.25;;;;;;;;;;5033178;28;20053;-63
2021/10/18 04:03:10;;;;;;;0.20;0.10;;;;;;;;;;5034490;28;20396;-64
2021/10/18 04:05:36;;;;;;;0.85;0.30;;;;;;;;;;5037270;28;20032;-63
2021/10/18 04:08:01;;;;;;;1.20;0.20;;;;;;;;;;5037502;28;20021;-63
2021/10/18 04:10:26;;;;;;;0.00;0.00;;;;;;;;;;5037231;28;20063;-63
2021/10/18 04:12:52;;;;;;;0.45;0.20;;;;;;;;;;5037150;28;20055;-64
2021/10/18 04:15:17;;;;;;;0.65;0.30;;;;;;;;;;5037150;28;20393;-64
2021/10/18 04:17:42;;;;;;;0.43;0.13;;;;;;;;;;5037103;28;20009;-64
2021/10/18 04:20:08;;;;;;;0.60;0.20;;;;;;;;;;5037176;28;20096;-63
2021/10/18 04:22:33;;;;;;;1.33;0.20;;;;;;;;;;5037000;28;20096;-63
2021/10/18 04:24:58;;;;;;;0.20;0.17;;;;;;;;;;5037406;28;20029;-63
2021/10/18 04:27:24;;;;;;;0.50;0.20;;;;;;;;;;5036645;28;20022;-63
2021/10/18 04:29:49;;;;;;;1.48;0.40;;;;;;;;;;5037148;28;20033;-63
2021/10/18 04:32:14;;;;;;;0.80;0.20;;;;;;;;;;5036890;28;20068;-63
2021/10/18 04:34:39;;;;;;;0.43;0.17;;;;;;;;;;5036833;28;20757;-63
2021/10/18 04:37:05;;;;;;;0.80;0.57;;;;;;;;;;5036700;28;20404;-64
2021/10/18 04:39:30;;;;;;;0.70;0.33;;;;;;;;;;5036733;28;20255;-63
2021/10/18 04:41:56;;;;;;;0.20;0.10;;;;;;;;;;5036677;28;20242;-63
2021/10/18 04:44:21;;;;;;;0.98;0.20;;;;;;;;;;5036529;28;20037;-63
2021/10/18 04:46:47;;;;;;;1.15;0.20;;;;;;;;;;5036761;28;20032;-63
2021/10/18 04:49:12;;;;;;;1.80;0.10;;;;;;;;;;5036753;28;20067;-63
2021/10/18 04:51:37;;;;;;;0.20;0.10;;;;;;;;;;5036281;28;20729;-64
2021/10/18 04:54:03;;;;;;;0.20;0.10;;;;;;;;;;5036449;28;20030;-64
2021/10/18 04:56:28;;;;;;;0.98;0.35;;;;;;;;;;5036532;28;20025;-64
2021/10/18 04:58:53;;;;;;;0.77;0.20;;;;;;;;;;5036540;28;20017;-64
2021/10/18 05:01:19;;;;;;;0.17;0.13;;;;;;;;;;5036232;28;20049;-63
2021/10/18 05:03:44;;;;;;;0.57;0.17;;;;;;;;;;5036314;28;20065;-63
2021/10/18 05:06:09;;;;;;;0.10;0.07;;;;;;;;;;5036254;28;20036;-64
2021/10/18 05:08:34;;;;;;;0.90;0.28;;;;;;;;;;5035910;28;20246;-63
2021/10/18 05:11:00;;;;;;;0.57;0.17;;;;;;;;;;5036203;28;20463;-63
2021/10/18 05:13:25;;;;;;;1.38;0.40;;;;;;;;;;5035866;28;20251;-63
2021/10/18 05:15:52;;;;;;;0.70;0.03;;;;;;;;;;5035593;28;20017;-64
2021/10/18 05:18:17;;;;;;;0.40;0.30;;;;;;;;;;5036206;28;20044;-63
2021/10/18 05:20:43;;;;;;;0.38;0.00;;;;;;;;;;5035798;28;20053;-64
2021/10/18 05:23:08;;;;;;;0.70;0.10;;;;;;;;;;5036167;28;20522;-63
2021/10/18 05:25:33;;;;;;;0.60;0.32;;;;;;;;;;5035811;28;20364;-64
2021/10/18 05:27:58;;;;;;;0.90;0.25;;;;;;;;;;5035866;28;20029;-64
2021/10/18 05:30:27;;;;;;;1.75;0.30;;;;;;;;;;5035644;28;20026;-63
2021/10/18 05:32:53;;;;;;;0.50;0.30;;;;;;;;;;5035827;28;20083;-65
2021/10/18 05:35:18;;;;;;;0.40;0.30;;;;;;;;;;5035723;28;20041;-63
2021/10/18 05:37:44;;;;;;;0.10;0.10;;;;;;;;;;5035502;28;20428;-63
2021/10/18 05:40:10;;;;;;;1.55;0.10;;;;;;;;;;5035749;28;20544;-63
2021/10/18 05:42:35;;;;;;;0.35;0.20;;;;;;;;;;5035584;28;20048;-63
2021/10/18 05:45:00;;;;;;;0.80;0.10;;;;;;;;;;5035685;28;20014;-63
2021/10/18 05:47:25;;;;;;;1.27;0.10;;;;;;;;;;5035386;28;20022;-63
2021/10/18 05:49:50;;;;;;;0.20;0.10;;;;;;;;;;5035276;28;20018;-64
2021/10/18 05:52:17;;;;;;;0.20;0.10;;;;;;;;;;5034188;28;20029;-64
2021/10/18 05:54:42;;;;;;;1.98;0.20;;;;;;;;;;5035154;28;20028;-64
2021/10/18 05:57:08;;;;;;;0.43;0.20;;;;;;;;;;5035357;28;20014;-64
2021/10/18 05:59:33;;;;;;;0.50;0.10;;;;;;;;;;5035102;28;20579;-63
2021/10/18 06:01:58;;;;;;;0.40;0.17;;;;;;;;;;5035184;28;20139;-63
2021/10/18 06:04:23;;;;;;;1.23;0.20;;;;;;;;;;5034815;28;20018;-63
2021/10/18 06:06:49;;;;;;;1.13;0.10;;;;;;;;;;5035292;28;20270;-63
2021/10/18 06:09:14;;;;;;;0.68;0.13;;;;;;;;;;5035153;28;20661;-63
2021/10/18 06:11:40;;;;;;;0.75;0.30;;;;;;;;;;5034392;28;20021;-63
2021/10/18 06:14:05;;;;;;;0.65;0.20;;;;;;;;;;5027105;28;20053;-63
2021/10/18 06:16:30;;;;;;;0.80;0.28;;;;;;;;;;5028299;28;20498;-64
2021/10/18 06:18:55;;;;;;;0.85;0.30;;;;;;;;;;5034574;28;20024;-64
2021/10/18 06:21:21;;;;;;;0.63;0.30;;;;;;;;;;5034244;28;20021;-63
2021/10/18 06:23:46;;;;;;;0.40;0.20;;;;;;;;;;5034551;28;20064;-64
2021/10/18 06:26:12;;;;;;;0.65;0.25;;;;;;;;;;5037216;28;20060;-64
2021/10/18 06:28:38;;;;;;;0.43;0.20;;;;;;;;;;5040945;28;20521;-64
2021/10/18 06:31:03;;;;;;;0.30;0.10;;;;;;;;;;5048012;28;20025;-63
2021/10/18 06:33:28;;;;;;;0.17;0.08;;;;;;;;;;5054465;28;20047;-65
2021/10/18 06:35:53;;;;;;;0.38;0.20;;;;;;;;;;5042183;28;20021;-63
2021/10/18 06:38:19;;;;;;;0.40;0.10;;;;;;;;;;5034144;28;20037;-64
2021/10/18 06:40:45;;;;;;;1.13;0.10;;;;;;;;;;5034436;28;20084;-63
2021/10/18 06:43:10;;;;;;;0.40;0.10;;;;;;;;;;5034113;28;20518;-63
2021/10/18 06:45:36;;;;;;;1.08;0.30;;;;;;;;;;5033859;28;20404;-63
2021/10/18 06:48:01;;;;;;;1.10;0.20;;;;;;;;;;5033168;28;20025;-63
2021/10/18 06:50:28;;;;;;;0.22;0.10;;;;;;;;;;5033730;28;20262;-63
2021/10/18 06:52:54;;;;;;;0.28;0.10;;;;;;;;;;5033814;28;20565;-63
2021/10/18 06:55:21;;;;;;;1.13;0.20;;;;;;;;;;5033922;28;20100;-62
2021/10/18 06:57:46;;;;;;;0.55;0.30;;;;;;;;;;5033451;28;20013;-63
2021/10/18 07:00:11;;;;;;;0.50;0.10;;;;;;;;;;5042220;28;20108;-63
2021/10/18 07:02:36;;;;;;;0.45;0.20;;;;;;;;;;5053799;28;20294;-63
2021/10/18 07:05:02;;;;;;;0.50;0.20;;;;;;;;;;5042150;28;20032;-63
2021/10/18 07:07:27;;;;;;;1.45;0.40;;;;;;;;;;5035729;28;20259;-64
2021/10/18 07:09:59;;;;;;;1.45;0.22;;;;;;;;;;5033801;28;20014;-64
2021/10/18 07:12:25;;;;;;;0.52;0.20;;;;;;;;;;5013474;28;20056;-63
2021/10/18 07:14:50;;;;;;;0.70;0.30;;;;;;;;;;5014118;28;20049;-64
2021/10/18 07:17:15;;;;;;;0.45;0.30;;;;;;;;;;5013790;28;20018;-64
2021/10/18 07:19:40;;;;;;;0.95;0.20;;;;;;;;;;5027841;28;20034;-63
2021/10/18 07:22:07;;;;;;;0.80;0.32;;;;;;;;;;5033450;28;20079;-63
2021/10/18 07:24:32;;;;;;;0.47;0.10;;;;;;;;;;5032899;28;20021;-63
2021/10/18 07:26:57;;;;;;;0.90;0.15;;;;;;;;;;5032614;28;20469;-63
2021/10/18 07:29:22;;;;;;;0.65;0.20;;;;;;;;;;5032278;28;20633;-63
2021/10/18 07:31:48;;;;;;;2.42;0.30;;;;;;;;;;5035164;28;20036;-63
2021/10/18 07:34:15;;;;;;;0.25;0.13;;;;;;;;;;5053410;28;20098;-63
2021/10/18 07:36:48;;;;;;;0.47;0.13;;;;;;;;;;5044454;28;20013;-63
2021/10/18 07:39:15;;;;;;;0.50;0.40;;;;;;;;;;5032560;28;20859;-63
2021/10/18 07:41:41;;;;;;;1.15;0.10;;;;;;;;;;5040544;28;20025;-63
2021/10/18 07:44:06;;;;;;;0.40;0.13;;;;;;;;;;5040771;28;20033;-63
2021/10/18 07:46:31;;;;;;;0.10;0.00;;;;;;;;;;5033032;28;20033;-64
2021/10/18 07:48:56;;;;;;;0.28;0.20;;;;;;;;;;5032808;28;20035;-64
2021/10/18 07:51:22;;;;;;;0.27;0.10;;;;;;;;;;5032927;28;20492;-64
2021/10/18 07:53:47;;;;;;;0.85;0.30;;;;;;;;;;5032954;28;20346;-63
2021/10/18 07:56:13;;;;;;;0.70;0.00;;;;;;;;;;5032585;28;20049;-64
2021/10/18 07:58:38;;;;;;;0.10;0.10;;;;;;;;;;5031559;28;20024;-65
2021/10/18 08:01:04;;;;;;;3.75;0.57;;;;;;;;;;5031286;28;20057;-63
2021/10/18 08:03:29;;;;;;;0.33;0.23;;;;;;;;;;5033023;28;20053;-64
2021/10/18 08:05:54;;;;;;;0.50;0.30;;;;;;;;;;5032830;28;20725;-63
2021/10/18 08:08:28;;;;;;;0.50;0.20;;;;;;;;;;5032477;28;20273;-63
2021/10/18 08:10:53;;;;;;;1.48;0.43;;;;;;;;;;5038364;28;20032;-63
2021/10/18 08:13:19;;;;;;;0.83;0.43;;;;;;;;;;5043459;28;20021;-63
2021/10/18 08:15:44;;;;;;;1.83;0.20;;;;;;;;;;5032469;28;20286;-63
2021/10/18 08:18:09;;;;;;;0.95;0.63;;;;;;;;;;5033001;28;20101;-64
2021/10/18 08:20:34;;;;;;;0.20;0.05;;;;;;;;;;5032341;28;20013;-63
2021/10/18 08:23:00;;;;;;;0.50;0.20;;;;;;;;;;5032739;28;20030;-63
2021/10/18 08:25:26;;;;;;;1.30;0.30;;;;;;;;;;5032595;28;20485;-63
2021/10/18 08:27:51;;;;;;;0.77;0.15;;;;;;;;;;5031544;28;20053;-63
2021/10/18 08:30:17;;;;;;;0.45;0.10;;;;;;;;;;5032460;28;20053;-64
2021/10/18 08:32:42;;;;;;;0.52;0.20;;;;;;;;;;5032087;28;20050;-63
2021/10/18 08:35:09;;;;;;;0.55;0.10;;;;;;;;;;5040906;28;20070;-64
2021/10/18 08:40:20;;;;;;;;;;;;;;;;;;5052167;28;20032;-63
2021/10/18 08:45:23;;;;;;;0.10;0.10;;;;;;;;;;5052713;28;20024;-63
2021/10/18 08:47:48;;;;;;;2.42;0.38;;;;;;;;;;5039780;28;20036;-64
2021/10/18 08:50:14;;;;;;;1.15;0.15;;;;;;;;;;5033831;28;20025;-63
2021/10/18 08:52:41;;;;;;;0.45;0.20;;;;;;;;;;5036038;28;20550;-63
2021/10/18 08:55:06;;;;;;;2.17;0.43;;;;;;;;;;5036479;28;20100;-63
2021/10/18 08:57:32;;;;;;;0.50;0.20;;;;;;;;;;5035015;28;20491;-63
2021/10/18 08:59:57;;;;;;;0.20;0.10;;;;;;;;;;5036360;28;20021;-63
2021/10/18 09:02:33;;;;;;;0.82;0.50;;;;;;;;;;5035957;28;20041;-63
2021/10/18 09:04:59;;;;;;;0.52;0.10;;;;;;;;;;5036575;28;20029;-64
2021/10/18 09:07:24;;;;;;;0.43;0.15;;;;;;;;;;5039181;28;20017;-63
2021/10/18 09:09:50;;;;;;;0.83;0.10;;;;;;;;;;5036071;28;20373;-63
2021/10/18 09:12:23;;;;;;;0.55;0.20;;;;;;;;;;5035534;28;20772;-63
2021/10/18 09:14:48;;;;;;;0.32;0.10;;;;;;;;;;5036036;28;20021;-63
2021/10/18 09:17:13;;;;;;;0.10;0.10;;;;;;;;;;5036103;28;20030;-63
2021/10/18 09:19:38;;;;;;;0.30;0.10;;;;;;;;;;5036087;28;20257;-63
2021/10/18 09:22:07;;;;;;;0.70;0.10;;;;;;;;;;5036055;28;20033;-63
2021/10/18 09:24:39;;;;;;;0.52;0.13;;;;;;;;;;5035780;28;20116;-63
2021/10/18 09:27:05;;;;;;;1.50;0.40;;;;;;;;;;5035880;28;20017;-63
2021/10/18 09:29:51;;;;;;;0.50;0.17;;;;;;;;;;5035423;28;20025;-63
2021/10/18 09:32:16;;;;;;;0.93;0.40;;;;;;;;;;5037077;28;20467;-63
2021/10/18 09:34:41;;;;;;;0.43;0.33;;;;;;;;;;5035534;28;20100;-63
2021/10/18 09:37:08;;;;;;;0.25;0.25;;;;;;;;;;5033728;28;20267;-63
2021/10/18 09:39:34;;;;;;;0.15;0.10;;;;;;;;;;5035474;28;20044;-63
2021/10/18 09:42:03;;;;;;;1.45;0.20;;;;;;;;;;5035830;28;20062;-64
2021/10/18 09:45:01;;;;;;;0.55;0.10;;;;;;;;;;5037540;28;20396;-64
2021/10/18 10:54:31;;;;;;;0.28;0.28;;;;;;;;;;4992235;28;20034;-65
2021/10/18 10:57:09;;;;;;;0.57;0.20;;;;;;;;;;4992730;28;20105;-65
2021/10/18 10:59:34;;;;;;;0.50;0.20;;;;;;;;;;5000721;28;20033;-65
2021/10/18 11:01:59;;;;;;;0.73;0.50;;;;;;;;;;5032723;28;20060;-66
2021/10/18 11:04:30;;;;;;;0.35;0.20;;;;;;;;;;5033750;28;20583;-66
2021/10/18 11:07:06;;;;;;;1.30;0.20;;;;;;;;;;5033965;28;20025;-66
2021/10/18 11:09:41;;;;;;;0.50;0.20;;;;;;;;;;5033414;28;20105;-65
2021/10/18 11:12:06;;;;;;;;;;;;;;;;;;5034148;28;20052;-66
2021/10/18 11:14:32;;;;;;;1.57;0.40;;;;;;;;;;5033262;28;19948;-66
2021/10/18 11:16:57;;;;;;;0.47;0.30;;;;;;;;;;5033729;28;20255;-65
2021/10/18 11:19:23;;;;;;;0.70;0.47;;;;;;;;;;5033152;28;20025;-65
2021/10/18 11:21:57;;;;;;;0.20;0.10;;;;;;;;;;5028526;28;20084;-65
2021/10/18 11:24:23;;;;;;;0.93;0.20;;;;;;;;;;5029726;28;20036;-65
2021/10/18 11:26:51;;;;;;;1.00;0.25;;;;;;;;;;5032904;28;20476;-65
2021/10/18 11:29:17;;;;;;;0.45;0.30;;;;;;;;;;5032250;28;20464;-64
2021/10/18 11:31:43;;;;;;;0.35;0.20;;;;;;;;;;5032571;28;20025;-66
2021/10/18 11:34:10;;;;;;;0.70;0.20;;;;;;;;;;5032818;28;20013;-65
2021/10/18 11:36:37;;;;;;;1.33;0.17;;;;;;;;;;5032557;28;20014;-65
2021/10/18 11:39:06;;;;;;;1.23;0.57;;;;;;;;;;5032555;28;20021;-65
2021/10/18 11:41:31;;;;;;;0.40;0.10;;;;;;;;;;5032297;28;20017;-65
2021/10/18 11:43:57;;;;;;;0.40;0.10;;;;;;;;;;5032731;28;20022;-64
2021/10/18 11:46:22;;;;;;;0.88;0.30;;;;;;;;;;5032369;28;20337;-64
2021/10/18 11:48:47;;;;;;;0.30;0.22;;;;;;;;;;5032359;28;20017;-64
2021/10/18 11:51:12;;;;;;;1.27;0.28;;;;;;;;;;5032440;28;20040;-64
2021/10/18 11:53:43;;;;;;;0.28;0.10;;;;;;;;;;5032360;28;20210;-65
2021/10/18 11:56:09;;;;;;;1.08;0.20;;;;;;;;;;5032459;28;20018;-65
2021/10/18 11:58:37;;;;;;;0.40;0.20;;;;;;;;;;5031266;28;20018;-65
2021/10/18 12:01:03;;;;;;;0.40;0.32;;;;;;;;;;5033354;28;20053;-65
2021/10/18 12:03:29;;;;;;;0.38;0.20;;;;;;;;;;5031406;28;20018;-65
2021/10/18 12:05:56;;;;;;;1.10;0.55;;;;;;;;;;5033080;28;20049;-65
2021/10/18 12:08:25;;;;;;;2.38;0.20;;;;;;;;;;5032631;28;20064;-65
2021/10/18 12:10:50;;;;;;;0.47;0.20;;;;;;;;;;5027279;28;20496;-64
2021/10/18 12:13:17;;;;;;;0.13;0.13;;;;;;;;;;5030714;28;20037;-63
2021/10/18 12:15:44;;;;;;;0.70;0.20;;;;;;;;;;5024467;28;20014;-64
2021/10/18 12:18:10;;;;;;;0.38;0.20;;;;;;;;;;5032203;28;20017;-64
2021/10/18 12:20:35;;;;;;;1.40;0.43;;;;;;;;;;5031389;28;20495;-63
2021/10/18 12:23:00;;;;;;;0.68;0.35;;;;;;;;;;5032077;28;20111;-63
2021/10/18 12:25:25;;;;;;;0.70;0.40;;;;;;;;;;5033560;28;20453;-62
2021/10/18 12:27:51;;;;;;;0.63;0.30;;;;;;;;;;5039130;28;20018;-62
2021/10/18 12:30:45;;;;;;;0.63;0.30;;;;;;;;;;5036057;28;20820;-63
2021/10/18 12:33:12;;;;;;;0.22;0.22;;;;;;;;;;4975092;28;20390;-62
2021/10/18 12:35:37;;;;;;;2.25;0.40;;;;;;;;;;4974356;28;20018;-62
2021/10/18 12:38:09;;;;;;;0.40;0.17;;;;;;;;;;4973929;28;20030;-62
2021/10/18 12:40:34;;;;;;;0.30;0.20;;;;;;;;;;4973718;28;20118;-62
2021/10/18 12:43:02;;;;;;;1.23;0.43;;;;;;;;;;4973189;28;20166;-63
2021/10/18 12:45:31;;;;;;;0.65;0.20;;;;;;;;;;4969307;28;20644;-63
2021/10/18 12:47:58;;;;;;;1.95;0.15;;;;;;;;;;4971062;28;20057;-62
2021/10/18 12:50:24;;;;;;;0.20;0.10;;;;;;;;;;4972915;28;20026;-62
2021/10/18 12:52:54;;;;;;;0.55;0.20;;;;;;;;;;4973618;28;20030;-62
2021/10/18 12:55:38;;;;;;;0.55;0.15;;;;;;;;;;4970580;28;20486;-62
2021/10/18 12:58:04;;;;;;;;;;;;;;;;;;4974310;28;20111;-62
2021/10/18 13:00:33;;;;;;;1.27;0.40;;;;;;;;;;4971929;28;20016;-64
2021/10/18 13:03:07;;;;;;;2.05;0.40;;;;;;;;;;4973275;28;20121;-62
2021/10/18 13:05:36;;;;;;;0.93;0.20;;;;;;;;;;4974059;28;20109;-62
2021/10/18 13:08:02;;;;;;;0.88;0.40;;;;;;;;;;4973586;28;20027;-62
2021/10/18 13:10:32;;;;;;;1.02;0.20;;;;;;;;;;5026256;28;20030;-63
2021/10/18 13:12:58;;;;;;;0.60;0.30;;;;;;;;;;5033987;28;20041;-63
2021/10/18 13:15:24;;;;;;;1.42;0.25;;;;;;;;;;5033584;28;20014;-63
2021/10/18 13:17:49;;;;;;;1.08;0.40;;;;;;;;;;5033470;28;20072;-63
2021/10/18 13:20:16;;;;;;;0.57;0.30;;;;;;;;;;5032180;28;20037;-64
2021/10/18 13:22:42;;;;;;;2.42;0.32;;;;;;;;;;5035340;28;20475;-63
2021/10/18 13:25:08;;;;;;;1.10;0.22;;;;;;;;;;5033126;28;20400;-63
2021/10/18 13:27:33;;;;;;;0.30;0.30;;;;;;;;;;5032241;28;20017;-63
2021/10/18 13:29:59;;;;;;;0.65;0.13;;;;;;;;;;5035992;28;20476;-64
2021/10/18 13:32:24;;;;;;;3.08;0.22;;;;;;;;;;5032045;28;20484;-64
2021/10/18 13:34:49;;;;;;;0.55;0.20;;;;;;;;;;5032972;28;20032;-63
2021/10/18 13:37:15;;;;;;;1.03;0.30;;;;;;;;;;5032314;28;20025;-64
2021/10/18 13:39:40;;;;;;;0.30;0.20;;;;;;;;;;5034000;28;20357;-64
2021/10/18 13:42:06;;;;;;;0.40;0.40;;;;;;;;;;5034520;28;20053;-63
2021/10/18 13:44:32;;;;;;;0.30;0.10;;;;;;;;;;5034573;28;20022;-63
2021/10/18 13:46:58;;;;;;;0.52;0.20;;;;;;;;;;5032878;28;20032;-64
2021/10/18 13:49:23;;;;;;;0.82;0.30;;;;;;;;;;5033929;28;20026;-63
2021/10/18 13:51:48;;;;;;;0.43;0.20;;;;;;;;;;5033519;28;20104;-63
2021/10/18 13:54:13;;;;;;;1.43;0.30;;;;;;;;;;5034106;28;20265;-63
2021/10/18 13:56:38;;;;;;;0.50;0.20;;;;;;;;;;5034335;28;20259;-64
2021/10/18 13:59:04;;;;;;;0.60;0.35;;;;;;;;;;5033929;28;20423;-62
2021/10/18 14:01:29;;;;;;;1.10;0.10;;;;;;;;;;5033724;28;20137;-62
2021/10/18 14:03:54;;;;;;;1.65;0.35;;;;;;;;;;5034346;28;20512;-62
2021/10/18 14:06:19;;;;;;;1.80;0.20;;;;;;;;;;5034278;28;20051;-62
2021/10/18 14:08:46;;;;;;;0.97;0.40;;;;;;;;;;5033732;28;20849;-62
2021/10/18 14:11:11;;;;;;;0.30;0.10;;;;;;;;;;5032729;28;20156;-65
2021/10/18 14:13:36;;;;;;;1.83;0.33;;;;;;;;;;5049136;28;20060;-65
2021/10/18 14:16:02;;;;;;;1.08;0.35;;;;;;;;;;5036530;28;20282;-66
2021/10/18 14:18:28;;;;;;;0.63;0.30;;;;;;;;;;5033658;28;20049;-65
2021/10/18 14:20:53;;;;;;;3.08;0.43;;;;;;;;;;5034120;28;20048;-65
2021/10/18 14:23:20;;;;;;;0.55;0.35;;;;;;;;;;5033870;28;20036;-65
2021/10/18 14:25:45;;;;;;;1.10;0.47;;;;;;;;;;5033909;28;20045;-66
2021/10/18 14:28:10;;;;;;;0.65;0.38;;;;;;;;;;5033949;28;20063;-65
2021/10/18 14:30:37;;;;;;;1.33;0.40;;;;;;;;;;5033454;28;20037;-65
2021/10/18 14:33:02;;;;;;;0.68;0.20;;;;;;;;;;5033833;28;20021;-65
2021/10/18 14:35:27;;;;;;;0.43;0.20;;;;;;;;;;5032966;28;20029;-66
2021/10/18 14:37:52;;;;;;;0.70;0.20;;;;;;;;;;5031179;28;20022;-66
2021/10/18 14:40:18;;;;;;;0.68;0.17;;;;;;;;;;5031347;28;20563;-66
2021/10/18 14:42:43;;;;;;;0.45;0.20;;;;;;;;;;5031623;28;20029;-66
2021/10/18 14:45:09;;;;;;;0.70;0.30;;;;;;;;;;5031841;28;20021;-66
2021/10/18 14:47:34;;;;;;;0.47;0.25;;;;;;;;;;5032788;28;20468;-66
2021/10/18 14:50:00;;;;;;;2.10;0.38;;;;;;;;;;5031570;28;20104;-66
2021/10/18 14:52:25;;;;;;;0.43;0.20;;;;;;;;;;5029391;28;20037;-66
2021/10/18 14:54:50;;;;;;;1.75;0.50;;;;;;;;;;5032794;28;20032;-66
2021/10/18 14:57:16;;;;;;;1.88;0.45;;;;;;;;;;5032690;28;20014;-66
2021/10/18 14:59:41;;;;;;;1.90;0.70;;;;;;;;;;5031530;28;20021;-67
2021/10/18 15:02:09;;;;;;;2.40;0.55;;;;;;;;;;5033047;28;20312;-67
2021/10/18 15:04:35;;;;;;;1.58;0.57;;;;;;;;;;5034165;28;20146;-67
2021/10/18 15:07:00;;;;;;;2.20;0.73;;;;;;;;;;5033712;28;20690;-67
2021/10/18 15:09:25;;;;;;;2.35;0.80;;;;;;;;;;5033106;28;20116;-67
2021/10/18 15:11:51;;;;;;;3.47;0.70;;;;;;;;;;5051186;28;20431;-67
2021/10/18 15:14:16;;;;;;;2.25;0.88;;;;;;;;;;5053758;28;20067;-67
2021/10/18 15:16:41;;;;;;;1.70;0.50;;;;;;;;;;5053461;28;20028;-67
2021/10/18 15:19:06;;;;;;;1.17;0.50;;;;;;;;;;5053888;28;20017;-67
2021/10/18 15:21:32;;;;;;;2.83;0.60;;;;;;;;;;5053599;28;20078;-67
2021/10/18 15:23:57;;;;;;;0.82;0.38;;;;;;;;;;5053775;28;20039;-66
2021/10/18 15:26:22;;;;;;;1.88;0.50;;;;;;;;;;5053209;28;20043;-67
2021/10/18 15:28:47;;;;;;;1.88;0.52;;;;;;;;;;5053493;28;20039;-67
2021/10/18 15:31:13;;;;;;;1.90;0.60;;;;;;;;;;5053347;28;20544;-67
2021/10/18 15:33:39;;;;;;;0.70;0.50;;;;;;;;;;5053394;28;20262;-66
2021/10/18 15:36:04;;;;;;;1.10;0.45;;;;;;;;;;5053571;28;20357;-66
2021/10/18 15:38:30;;;;;;;1.27;0.40;;;;;;;;;;5052844;28;20027;-65
2021/10/18 15:40:55;;;;;;;1.07;0.50;;;;;;;;;;5053279;28;20029;-66
2021/10/18 15:43:20;;;;;;;1.48;0.40;;;;;;;;;;5053533;28;20253;-65
2021/10/18 15:45:48;;;;;;;1.15;0.45;;;;;;;;;;5053251;28;20029;-65
2021/10/18 15:48:17;;;;;;;2.65;0.43;;;;;;;;;;5052928;28;20039;-65